createdAt,value
2017-12-28T00:00:01.314Z,2.44
2017-12-28T00:02:28.900Z,2.48
2017-12-28T00:04:56.480Z,2.55
2017-12-28T00:07:24.053Z,2.62
2017-12-28T00:09:52.366Z,2.73
2017-12-28T00:12:19.964Z,2.84
2017-12-28T00:14:47.523Z,2.84
2017-12-28T00:17:15.127Z,2.87
2017-12-28T00:19:42.687Z,2.90
2017-12-28T00:22:10.354Z,2.92
2017-12-28T00:24:37.929Z,2.85
2017-12-28T00:27:05.653Z,2.89
2017-12-28T00:29:33.199Z,3.39
2017-12-28T00:32:00.784Z,3.56
2017-12-28T00:34:28.347Z,3.54
2017-12-28T00:36:55.946Z,4.02
2017-12-28T00:39:23.520Z,4.13
2017-12-28T00:41:51.106Z,4.24
2017-12-28T00:44:18.644Z,4.25
2017-12-28T00:46:46.242Z,4.12
2017-12-28T00:49:19.683Z,3.97
2017-12-28T00:51:47.295Z,3.92
2017-12-28T00:54:14.877Z,3.78
2017-12-28T00:56:42.437Z,3.70
2017-12-28T00:59:10.040Z,3.64
2017-12-28T01:01:37.617Z,3.53
2017-12-28T01:04:05.179Z,3.39
2017-12-28T01:06:32.810Z,3.28
2017-12-28T01:09:00.376Z,3.20
2017-12-28T01:11:27.971Z,3.11
2017-12-28T01:13:55.567Z,3.02
2017-12-28T01:16:23.113Z,2.97
2017-12-28T01:18:50.673Z,2.90
2017-12-28T01:21:18.277Z,2.81
2017-12-28T01:23:45.852Z,2.78
2017-12-28T01:26:13.401Z,2.67
2017-12-28T01:28:41.002Z,2.50
2017-12-28T01:31:08.763Z,2.39
2017-12-28T01:33:36.335Z,2.28
2017-12-28T01:36:04.431Z,2.21
2017-12-28T01:38:31.992Z,2.18
2017-12-28T01:40:59.535Z,2.05
2017-12-28T01:43:27.193Z,1.99
2017-12-28T01:45:54.736Z,1.98
2017-12-28T01:48:22.322Z,1.89
2017-12-28T01:50:49.905Z,1.83
2017-12-28T01:53:17.472Z,1.72
2017-12-28T01:55:45.037Z,1.68
2017-12-28T01:58:12.644Z,1.63
2017-12-28T02:00:40.190Z,1.60
2017-12-28T02:03:07.953Z,1.57
2017-12-28T02:05:35.609Z,1.52
2017-12-28T02:08:03.178Z,1.50
2017-12-28T02:10:30.739Z,1.43
2017-12-28T02:12:58.338Z,1.43
2017-12-28T02:15:25.893Z,1.33
2017-12-28T02:17:58.437Z,1.28
2017-12-28T02:20:26.035Z,1.18
2017-12-28T02:22:53.576Z,1.16
2017-12-28T02:25:21.165Z,1.07
2017-12-28T02:27:48.736Z,1.08
2017-12-28T02:30:16.296Z,1.04
2017-12-28T02:32:43.898Z,1.01
2017-12-28T02:35:11.817Z,1.00
2017-12-28T02:37:39.395Z,1.01
2017-12-28T02:40:06.968Z,1.04
2017-12-28T02:42:34.502Z,1.04
2017-12-28T02:45:03.605Z,1.11
2017-12-28T02:47:31.559Z,1.12
2017-12-28T02:49:59.110Z,1.13
2017-12-28T02:52:26.823Z,1.19
2017-12-28T02:54:54.388Z,1.21
2017-12-28T02:57:21.942Z,1.24
2017-12-28T02:59:49.510Z,1.25
2017-12-28T03:02:18.490Z,1.26
2017-12-28T03:04:46.037Z,1.30
2017-12-28T03:07:13.967Z,1.30
2017-12-28T03:09:41.729Z,1.30
2017-12-28T03:12:09.284Z,1.30
2017-12-28T03:14:36.850Z,1.29
2017-12-28T03:17:06.399Z,1.23
2017-12-28T03:19:34.055Z,1.20
2017-12-28T03:22:01.609Z,1.22
2017-12-28T03:24:29.162Z,1.25
2017-12-28T03:26:56.722Z,1.21
2017-12-28T03:29:24.265Z,1.20
2017-12-28T03:31:51.803Z,1.20
2017-12-28T03:34:19.691Z,1.23
2017-12-28T03:36:47.265Z,1.28
2017-12-28T03:39:15.264Z,1.23
2017-12-28T03:42:06.052Z,1.23
2017-12-28T03:44:34.709Z,1.18
2017-12-28T03:47:02.774Z,1.18
2017-12-28T03:49:30.524Z,1.14
2017-12-28T03:51:58.062Z,1.14
2017-12-28T03:54:26.222Z,1.18
2017-12-28T03:56:54.389Z,1.11
2017-12-28T03:59:21.945Z,1.12
2017-12-28T04:01:49.488Z,1.12
2017-12-28T04:04:17.048Z,1.12
2017-12-28T04:06:44.587Z,1.07
2017-12-28T04:09:12.441Z,1.05
2017-12-28T04:11:39.994Z,1.03
2017-12-28T04:14:07.533Z,1.10
2017-12-28T04:16:35.090Z,1.07
2017-12-28T04:19:02.646Z,1.04
2017-12-28T04:21:30.224Z,1.02
2017-12-28T04:23:57.767Z,1.02
2017-12-28T04:26:26.152Z,1.05
2017-12-28T04:28:53.723Z,1.11
2017-12-28T04:31:21.267Z,1.12
2017-12-28T04:33:48.812Z,1.09
2017-12-28T04:36:16.392Z,1.07
2017-12-28T04:38:43.946Z,1.08
2017-12-28T04:41:11.503Z,1.08
2017-12-28T04:43:39.114Z,1.04
2017-12-28T04:46:06.669Z,1.06
2017-12-28T04:48:34.230Z,1.04
2017-12-28T04:51:01.841Z,1.05
2017-12-28T04:53:29.464Z,1.00
2017-12-28T04:55:57.038Z,1.02
2017-12-28T04:58:24.905Z,1.03
2017-12-28T05:00:52.441Z,1.07
2017-12-28T05:03:19.982Z,1.07
2017-12-28T05:05:47.555Z,1.04
2017-12-28T05:08:15.098Z,1.07
2017-12-28T05:10:42.636Z,1.09
2017-12-28T05:13:10.686Z,1.09
2017-12-28T05:15:38.397Z,1.08
2017-12-28T05:18:06.044Z,0.98
2017-12-28T05:20:33.594Z,1.06
2017-12-28T05:23:01.158Z,1.06
2017-12-28T05:25:28.740Z,1.04
2017-12-28T05:27:56.272Z,1.05
2017-12-28T05:30:23.799Z,1.05
2017-12-28T05:32:51.348Z,1.04
2017-12-28T05:35:18.881Z,0.98
2017-12-28T05:37:46.416Z,0.97
2017-12-28T05:40:14.142Z,0.96
2017-12-28T05:42:41.708Z,0.98
2017-12-28T05:45:09.660Z,0.99
2017-12-28T05:47:37.312Z,1.00
2017-12-28T05:50:04.880Z,0.97
2017-12-28T05:52:32.428Z,0.98
2017-12-28T05:54:59.989Z,0.98
2017-12-28T05:57:28.618Z,0.99
2017-12-28T05:59:56.156Z,0.99
2017-12-28T06:02:23.717Z,0.99
2017-12-28T06:04:51.243Z,0.98
2017-12-28T06:07:18.886Z,0.97
2017-12-28T06:09:46.436Z,0.99
2017-12-28T06:12:14.041Z,0.98
2017-12-28T06:14:41.575Z,0.99
2017-12-28T06:17:09.424Z,1.01
2017-12-28T06:19:36.978Z,1.02
2017-12-28T06:22:04.527Z,1.01
2017-12-28T06:24:32.064Z,1.02
2017-12-28T06:26:59.619Z,1.06
2017-12-28T06:29:27.158Z,1.05
2017-12-28T06:31:54.692Z,1.07
2017-12-28T06:34:22.645Z,1.08
2017-12-28T06:36:50.246Z,1.11
2017-12-28T06:39:17.781Z,1.14
2017-12-28T06:41:45.300Z,1.14
2017-12-28T06:44:12.862Z,1.11
2017-12-28T06:46:40.443Z,1.09
2017-12-28T06:49:08.173Z,1.11
2017-12-28T06:51:35.721Z,1.15
2017-12-28T06:54:03.296Z,1.12
2017-12-28T06:56:30.817Z,1.16
2017-12-28T06:58:58.298Z,1.14
2017-12-28T07:01:25.804Z,1.14
2017-12-28T07:03:54.626Z,1.14
2017-12-28T07:06:22.169Z,1.15
2017-12-28T07:08:49.744Z,1.16
2017-12-28T07:11:17.273Z,1.25
2017-12-28T07:13:44.803Z,1.28
2017-12-28T07:16:13.694Z,1.27
2017-12-28T07:18:41.381Z,1.27
2017-12-28T07:21:09.882Z,1.24
2017-12-28T07:23:37.910Z,1.21
2017-12-28T07:26:05.685Z,1.22
2017-12-28T07:28:33.216Z,1.21
2017-12-28T07:31:00.733Z,1.26
2017-12-28T07:33:28.292Z,1.33
2017-12-28T07:35:55.835Z,1.32
2017-12-28T07:38:23.367Z,1.34
2017-12-28T07:40:50.929Z,1.32
2017-12-28T07:43:18.470Z,1.32
2017-12-28T07:45:46.009Z,1.30
2017-12-28T07:51:04.072Z,1.29
2017-12-28T07:53:31.632Z,1.28
2017-12-28T07:55:59.157Z,1.27
2017-12-28T07:58:26.690Z,1.26
2017-12-28T08:00:54.286Z,1.29
2017-12-28T08:03:21.823Z,1.27
2017-12-28T08:05:49.382Z,1.30
2017-12-28T08:08:16.935Z,1.38
2017-12-28T08:10:44.484Z,1.43
2017-12-28T08:13:12.394Z,1.45
2017-12-28T08:15:40.574Z,1.48
2017-12-28T08:18:08.101Z,1.53
2017-12-28T08:20:35.620Z,1.54
2017-12-28T08:23:03.202Z,1.51
2017-12-28T08:25:31.820Z,1.53
2017-12-28T08:27:59.343Z,1.51
2017-12-28T08:30:26.878Z,1.53
2017-12-28T08:32:54.442Z,1.54
2017-12-28T08:35:22.137Z,1.55
2017-12-28T08:37:49.778Z,1.56
2017-12-28T08:40:17.341Z,1.57
2017-12-28T08:42:44.879Z,1.61
2017-12-28T08:45:12.405Z,1.60
2017-12-28T08:47:40.015Z,1.60
2017-12-28T08:50:07.547Z,1.65
2017-12-28T08:52:35.023Z,1.65
2017-12-28T08:55:02.533Z,1.65
2017-12-28T08:57:31.436Z,1.63
2017-12-28T08:59:58.940Z,1.62
2017-12-28T09:02:26.513Z,1.63
2017-12-28T09:04:54.057Z,1.66
2017-12-28T09:07:21.613Z,1.63
2017-12-28T09:09:49.187Z,1.63
2017-12-28T09:12:16.720Z,1.71
2017-12-28T09:14:44.279Z,1.77
2017-12-28T09:17:12.120Z,1.79
2017-12-28T09:19:39.666Z,1.84
2017-12-28T09:22:07.228Z,1.87
2017-12-28T09:24:34.777Z,1.87
2017-12-28T09:27:02.445Z,1.73
2017-12-28T09:29:30.044Z,1.77
2017-12-28T09:31:57.613Z,1.81
2017-12-28T09:34:25.896Z,1.75
2017-12-28T09:36:53.447Z,1.85
2017-12-28T09:39:20.985Z,1.88
2017-12-28T09:41:48.539Z,1.88
2017-12-28T09:44:16.082Z,1.92
2017-12-28T09:46:43.618Z,1.90
2017-12-28T09:49:11.762Z,1.93
2017-12-28T09:51:39.356Z,1.90
2017-12-28T09:54:07.075Z,1.83
2017-12-28T09:56:34.640Z,1.90
2017-12-28T09:59:02.196Z,1.89
2017-12-28T10:01:29.727Z,1.85
2017-12-28T10:03:57.290Z,1.83
2017-12-28T10:06:24.831Z,1.86
2017-12-28T10:11:42.652Z,1.79
2017-12-28T10:14:10.297Z,1.85
2017-12-28T10:16:37.831Z,1.88
2017-12-28T10:19:05.458Z,2.00
2017-12-28T10:21:33.006Z,2.09
2017-12-28T10:24:00.528Z,2.05
2017-12-28T10:26:28.531Z,2.11
2017-12-28T10:28:56.079Z,2.15
2017-12-28T10:31:23.618Z,2.17
2017-12-28T10:33:51.175Z,2.14
2017-12-28T10:36:18.754Z,2.27
2017-12-28T10:38:46.279Z,2.31
2017-12-28T10:41:13.822Z,2.36
2017-12-28T10:43:41.343Z,2.30
2017-12-28T10:46:08.892Z,2.25
2017-12-28T10:48:36.470Z,2.24
2017-12-28T10:51:03.996Z,2.23
2017-12-28T10:53:31.519Z,2.25
2017-12-28T10:55:59.082Z,2.23
2017-12-28T10:58:26.623Z,2.28
2017-12-28T11:00:54.152Z,2.23
2017-12-28T11:03:21.716Z,2.21
2017-12-28T11:05:49.244Z,2.20
2017-12-28T11:08:16.779Z,2.21
2017-12-28T11:10:44.321Z,2.21
2017-12-28T11:13:12.305Z,2.28
2017-12-28T11:15:39.841Z,2.34
2017-12-28T11:18:08.905Z,2.46
2017-12-28T11:20:36.496Z,2.37
2017-12-28T11:23:04.012Z,2.41
2017-12-28T11:25:31.535Z,2.47
2017-12-28T11:27:59.086Z,2.43
2017-12-28T11:30:26.620Z,2.29
2017-12-28T11:32:54.155Z,2.25
2017-12-28T11:35:21.700Z,2.27
2017-12-28T11:37:49.215Z,2.32
2017-12-28T11:40:16.734Z,2.30
2017-12-28T11:42:44.277Z,2.38
2017-12-28T11:45:11.841Z,2.35
2017-12-28T11:47:39.409Z,2.44
2017-12-28T11:50:11.100Z,2.43
2017-12-28T11:52:48.991Z,2.48
2017-12-28T11:55:20.372Z,2.49
2017-12-28T11:57:53.397Z,2.42
2017-12-28T12:00:26.533Z,2.34
2017-12-28T12:02:59.666Z,2.34
2017-12-28T12:05:27.303Z,2.28
2017-12-28T12:10:50.644Z,2.26
2017-12-28T12:13:18.169Z,2.32
2017-12-28T12:15:45.702Z,2.26
2017-12-28T12:18:13.272Z,2.31
2017-12-28T12:23:31.118Z,2.38
2017-12-28T12:25:58.682Z,2.29
2017-12-28T12:28:26.272Z,2.30
2017-12-28T12:30:53.829Z,2.32
2017-12-28T12:33:21.395Z,2.36
2017-12-28T12:35:48.949Z,2.34
2017-12-28T12:38:16.513Z,2.33
2017-12-28T12:40:44.076Z,2.34
2017-12-28T12:43:11.814Z,2.35
2017-12-28T12:45:39.623Z,2.37
2017-12-28T12:48:07.177Z,2.28
2017-12-28T12:50:34.707Z,2.23
2017-12-28T12:53:02.324Z,2.16
2017-12-28T12:55:29.865Z,2.30
2017-12-28T12:57:57.422Z,2.22
2017-12-28T13:00:24.987Z,2.16
2017-12-28T13:02:52.540Z,2.16
2017-12-28T13:05:20.088Z,2.19
2017-12-28T13:07:47.653Z,2.11
2017-12-28T13:10:15.219Z,2.13
2017-12-28T13:12:42.778Z,2.10
2017-12-28T13:15:10.526Z,2.14
2017-12-28T13:17:38.102Z,2.14
2017-12-28T13:20:05.678Z,2.16
2017-12-28T13:22:33.238Z,2.08
2017-12-28T13:25:00.814Z,2.11
2017-12-28T13:27:28.399Z,2.15
2017-12-28T13:29:55.993Z,2.10
2017-12-28T13:32:23.609Z,2.10
2017-12-28T13:34:51.210Z,2.17
2017-12-28T13:37:18.780Z,2.18
2017-12-28T13:39:46.332Z,2.21
2017-12-28T13:42:14.108Z,2.19
2017-12-28T13:44:41.644Z,2.13
2017-12-28T13:47:09.509Z,2.11
2017-12-28T13:49:37.104Z,2.11
2017-12-28T13:52:04.658Z,2.05
2017-12-28T13:54:32.228Z,2.06
2017-12-28T13:56:59.819Z,2.09
2017-12-28T13:59:27.356Z,2.04
2017-12-28T14:01:54.900Z,2.08
2017-12-28T14:04:22.491Z,2.08
2017-12-28T14:06:50.039Z,2.08
2017-12-28T14:09:17.597Z,2.08
2017-12-28T14:11:45.215Z,2.06
2017-12-28T14:14:12.750Z,2.08
2017-12-28T14:16:40.318Z,2.12
2017-12-28T14:19:08.071Z,2.11
2017-12-28T14:21:35.670Z,2.09
2017-12-28T14:24:03.253Z,2.13
2017-12-28T14:26:30.796Z,2.09
2017-12-28T14:28:58.389Z,2.11
2017-12-28T14:31:26.392Z,2.13
2017-12-28T14:33:53.936Z,2.10
2017-12-28T14:36:21.500Z,2.11
2017-12-28T14:38:49.063Z,2.15
2017-12-28T14:41:16.628Z,2.14
2017-12-28T14:43:44.188Z,2.12
2017-12-28T14:46:11.759Z,2.09
2017-12-28T14:48:39.319Z,2.11
2017-12-28T14:51:06.908Z,2.11
2017-12-28T14:53:34.467Z,2.19
2017-12-28T14:56:02.032Z,2.23
2017-12-28T14:58:29.609Z,2.14
2017-12-28T15:00:57.162Z,2.13
2017-12-28T15:03:24.985Z,2.10
2017-12-28T15:05:52.561Z,2.13
2017-12-28T15:08:20.487Z,2.13
2017-12-28T15:10:48.622Z,2.09
2017-12-28T15:13:16.198Z,2.07
2017-12-28T15:15:43.750Z,2.18
2017-12-28T15:18:11.288Z,2.12
2017-12-28T15:20:38.877Z,2.09
2017-12-28T15:23:06.486Z,2.09
2017-12-28T15:25:34.038Z,2.01
2017-12-28T15:28:02.414Z,1.93
2017-12-28T15:30:30.233Z,1.85
2017-12-28T15:32:57.783Z,1.79
2017-12-28T15:35:25.381Z,1.75
2017-12-28T15:37:53.326Z,1.63
2017-12-28T15:40:20.967Z,1.58
2017-12-28T15:42:48.580Z,1.52
2017-12-28T15:45:16.174Z,1.48
2017-12-28T15:47:43.717Z,1.45
2017-12-28T15:50:11.309Z,1.40
2017-12-28T15:52:38.962Z,1.33
2017-12-28T15:55:06.656Z,1.29
2017-12-28T15:57:34.233Z,1.26
2017-12-28T16:00:01.785Z,1.24
2017-12-28T16:02:29.349Z,1.21
2017-12-28T16:04:56.924Z,1.25
2017-12-28T16:07:24.959Z,1.23
2017-12-28T16:09:52.524Z,1.22
2017-12-28T16:12:20.115Z,1.18
2017-12-28T16:14:47.810Z,1.16
2017-12-28T16:17:15.366Z,1.13
2017-12-28T16:19:42.911Z,1.09
2017-12-28T16:22:10.484Z,1.14
2017-12-28T16:24:38.017Z,1.15
2017-12-28T16:27:05.828Z,1.09
2017-12-28T16:29:33.462Z,1.06
2017-12-28T16:32:00.999Z,1.13
2017-12-28T16:34:28.552Z,1.11
2017-12-28T16:36:56.120Z,1.11
2017-12-28T16:39:23.665Z,1.08
2017-12-28T16:41:51.236Z,1.02
2017-12-28T16:44:18.806Z,1.03
2017-12-28T16:46:46.349Z,1.01
2017-12-28T16:49:13.907Z,1.01
2017-12-28T16:51:41.462Z,1.03
2017-12-28T16:54:09.032Z,1.00
2017-12-28T16:56:39.581Z,0.94
2017-12-28T16:59:07.143Z,1.04
2017-12-28T17:01:34.687Z,0.97
2017-12-28T17:04:02.430Z,0.94
2017-12-28T17:06:30.078Z,0.95
2017-12-28T17:08:57.657Z,0.90
2017-12-28T17:11:25.209Z,0.88
2017-12-28T17:13:52.787Z,0.85
2017-12-28T17:16:20.355Z,0.83
2017-12-28T17:18:47.917Z,0.79
2017-12-28T17:21:15.489Z,0.82
2017-12-28T17:26:33.246Z,0.80
2017-12-28T17:29:01.722Z,0.79
2017-12-28T17:31:29.270Z,0.81
2017-12-28T17:33:56.864Z,0.81
2017-12-28T17:36:24.415Z,0.81
2017-12-28T17:38:51.972Z,0.86
2017-12-28T17:41:19.577Z,0.85
2017-12-28T17:43:47.138Z,0.84
2017-12-28T17:46:14.722Z,0.79
2017-12-28T17:48:42.267Z,0.80
2017-12-28T17:51:10.205Z,0.80
2017-12-28T17:53:38.577Z,0.81
2017-12-28T17:56:06.083Z,0.78
2017-12-28T17:58:33.716Z,0.79
2017-12-28T18:01:01.231Z,0.82
2017-12-28T18:03:28.797Z,0.86
2017-12-28T18:05:56.369Z,0.86
2017-12-28T18:08:23.927Z,0.86
2017-12-28T18:10:51.474Z,0.86
2017-12-28T18:13:19.133Z,0.89
2017-12-28T18:15:46.706Z,0.85
2017-12-28T18:18:14.271Z,0.84
2017-12-28T18:20:41.892Z,0.81
2017-12-28T18:23:09.466Z,0.84
2017-12-28T18:25:37.030Z,0.83
2017-12-28T18:28:04.616Z,0.82
2017-12-28T18:30:32.178Z,0.83
2017-12-28T18:33:00.729Z,0.77
2017-12-28T18:35:28.350Z,0.75
2017-12-28T18:37:55.925Z,0.78
2017-12-28T18:40:23.495Z,0.80
2017-12-28T18:42:51.045Z,0.79
2017-12-28T18:45:18.593Z,0.80
2017-12-28T18:47:46.142Z,0.79
2017-12-28T18:50:13.728Z,0.82
2017-12-28T18:52:41.275Z,0.83
2017-12-28T18:55:08.956Z,0.80
2017-12-28T18:57:36.552Z,0.80
2017-12-28T19:00:04.661Z,0.76
2017-12-28T19:02:32.240Z,0.78
2017-12-28T19:04:59.845Z,0.76
2017-12-28T19:07:27.410Z,0.74
2017-12-28T19:09:54.993Z,0.75
2017-12-28T19:12:22.611Z,0.75
2017-12-28T19:14:50.149Z,0.78
2017-12-28T19:17:17.741Z,0.77
2017-12-28T19:19:45.288Z,0.76
2017-12-28T19:22:12.863Z,0.70
2017-12-28T19:24:40.445Z,0.70
2017-12-28T19:27:08.061Z,0.69
2017-12-28T19:29:35.617Z,0.73
2017-12-28T19:32:03.188Z,0.80
2017-12-28T19:34:30.761Z,0.78
2017-12-28T19:36:58.313Z,0.77
2017-12-28T19:39:25.873Z,0.75
2017-12-28T19:41:53.541Z,0.72
2017-12-28T19:44:21.083Z,0.70
2017-12-28T19:46:48.628Z,0.68
2017-12-28T19:49:16.318Z,0.65
2017-12-28T19:51:43.847Z,0.65
2017-12-28T19:54:11.396Z,0.67
2017-12-28T19:56:38.964Z,0.68
2017-12-28T19:59:06.531Z,0.67
2017-12-28T20:01:34.072Z,0.66
2017-12-28T20:04:01.638Z,0.71
2017-12-28T20:06:29.190Z,0.68
2017-12-28T20:08:56.719Z,0.65
2017-12-28T20:11:24.326Z,0.67
2017-12-28T20:13:51.841Z,0.60
2017-12-28T20:16:19.417Z,0.61
2017-12-28T20:18:47.002Z,0.62
2017-12-28T20:21:14.593Z,0.60
2017-12-28T20:23:42.143Z,0.63
2017-12-28T20:26:09.804Z,0.60
2017-12-28T20:28:37.350Z,0.62
2017-12-28T20:31:04.951Z,0.63
2017-12-28T20:33:32.492Z,0.60
2017-12-28T20:36:00.054Z,0.61
2017-12-28T20:38:27.608Z,0.62
2017-12-28T20:40:55.143Z,0.60
2017-12-28T20:43:24.617Z,0.58
2017-12-28T20:45:52.152Z,0.59
2017-12-28T20:48:19.921Z,0.59
2017-12-28T20:50:47.505Z,0.60
2017-12-28T20:53:15.047Z,0.59
2017-12-28T20:55:42.642Z,0.59
2017-12-28T20:58:10.189Z,0.57
2017-12-28T21:00:37.760Z,0.62
2017-12-28T21:03:05.413Z,0.64
2017-12-28T21:05:33.773Z,0.59
2017-12-28T21:08:01.316Z,0.60
2017-12-28T21:13:02.725Z,0.63
2017-12-28T21:15:30.284Z,0.63
2017-12-28T21:17:57.820Z,0.62
2017-12-28T21:20:25.354Z,0.58
2017-12-28T21:22:52.908Z,0.57
2017-12-28T21:25:20.461Z,0.58
2017-12-28T21:27:48.050Z,0.56
2017-12-28T21:30:15.540Z,0.58
2017-12-28T21:32:46.875Z,0.58
2017-12-28T21:35:14.377Z,0.55
2017-12-28T21:37:41.973Z,0.55
2017-12-28T21:40:09.514Z,0.54
2017-12-28T21:42:37.108Z,0.57
2017-12-28T21:45:05.132Z,0.58
2017-12-28T21:47:32.891Z,0.55
2017-12-28T21:50:02.268Z,0.54
2017-12-28T21:52:29.872Z,0.57
2017-12-28T21:54:57.473Z,0.53
2017-12-28T21:57:25.091Z,0.56
2017-12-28T21:59:53.424Z,0.52
2017-12-28T22:02:21.042Z,0.48
2017-12-28T22:04:48.606Z,0.51
2017-12-28T22:07:16.157Z,0.54
2017-12-28T22:09:43.724Z,0.50
2017-12-28T22:12:11.297Z,0.49
2017-12-28T22:14:38.960Z,0.50
2017-12-28T22:17:06.666Z,0.45
2017-12-28T22:19:34.228Z,0.45
2017-12-28T22:22:01.802Z,0.55
2017-12-28T22:24:29.409Z,0.58
2017-12-28T22:26:56.958Z,0.55
2017-12-28T22:29:24.537Z,0.51
2017-12-28T22:31:52.179Z,0.47
2017-12-28T22:34:19.750Z,0.42
2017-12-28T22:36:47.303Z,0.45
2017-12-28T22:39:14.894Z,0.48
2017-12-28T22:41:42.459Z,0.52
2017-12-28T22:44:10.020Z,0.49
2017-12-28T22:46:37.596Z,0.54
2017-12-28T22:49:05.220Z,0.51
2017-12-28T22:51:32.752Z,0.54
2017-12-28T22:54:00.352Z,0.54
2017-12-28T22:56:27.892Z,0.52
2017-12-28T22:58:55.448Z,0.56
2017-12-28T23:01:23.037Z,0.57
2017-12-28T23:03:50.603Z,0.51
2017-12-28T23:06:18.267Z,0.51
2017-12-28T23:08:45.852Z,0.52
2017-12-28T23:11:13.394Z,0.51
2017-12-28T23:13:40.950Z,0.54
2017-12-28T23:16:08.544Z,0.54
2017-12-28T23:18:36.094Z,0.49
2017-12-28T23:21:03.648Z,0.51
2017-12-28T23:23:31.192Z,0.49
2017-12-28T23:25:58.746Z,0.49
2017-12-28T23:28:26.287Z,0.52
2017-12-28T23:30:53.820Z,0.48
2017-12-28T23:33:21.410Z,0.45
2017-12-28T23:35:48.941Z,0.43
2017-12-28T23:38:17.568Z,0.46
2017-12-28T23:40:45.148Z,0.50
2017-12-28T23:43:12.996Z,0.46
2017-12-28T23:45:43.849Z,0.38
2017-12-28T23:48:11.406Z,0.33
2017-12-28T23:50:38.969Z,0.40
2017-12-28T23:53:06.622Z,0.42
2017-12-28T23:55:34.163Z,0.40
2017-12-28T23:58:01.756Z,0.32
